sensor_id;sensor_type;location;lat;lon;timestamp;temperature;humidity
16846;DHT22;8539;53.188;8.696;2023-07-22T00:00:03;13.60;99.90
16846;DHT22;8539;53.188;8.696;2023-07-22T00:02:32;13.60;99.90
16846;DHT22;8539;53.188;8.696;2023-07-22T00:04:58;13.50;99.90
16846;DHT22;8539;53.188;8.696;2023-07-22T00:07:24;13.50;99.90
16846;DHT22;8539;53.188;8.696;2023-07-22T00:09:50;13.50;99.90
16846;DHT22;8539;53.188;8.696;2023-07-22T00:12:17;13.40;99.90
16846;DHT22;8539;53.188;8.696;2023-07-22T00:14:43;13.40;99.90
16846;DHT22;8539;53.188;8.696;2023-07-22T00:17:10;13.40;99.90
16846;DHT22;8539;53.188;8.696;2023-07-22T00:19:36;13.40;99.90
16846;DHT22;8539;53.188;8.696;2023-07-22T00:22:02;13.40;99.90
16846;DHT22;8539;53.188;8.696;2023-07-22T00:24:28;13.40;99.90
16846;DHT22;8539;53.188;8.696;2023-07-22T00:26:55;13.40;99.90
16846;DHT22;8539;53.188;8.696;2023-07-22T00:29:21;13.40;99.90
16846;DHT22;8539;53.188;8.696;2023-07-22T00:31:47;13.30;99.90
16846;DHT22;8539;53.188;8.696;2023-07-22T00:34:13;13.30;99.90
16846;DHT22;8539;53.188;8.696;2023-07-22T00:36:39;13.30;99.90
16846;DHT22;8539;53.188;8.696;2023-07-22T00:39:05;13.30;99.90
16846;DHT22;8539;53.188;8.696;2023-07-22T00:41:32;13.30;99.90
16846;DHT22;8539;53.188;8.696;2023-07-22T00:43:58;13.20;99.90
16846;DHT22;8539;53.188;8.696;2023-07-22T00:46:24;13.20;99.90
16846;DHT22;8539;53.188;8.696;2023-07-22T00:48:50;13.20;99.90
16846;DHT22;8539;53.188;8.696;2023-07-22T00:51:17;13.20;99.90
16846;DHT22;8539;53.188;8.696;2023-07-22T00:53:45;13.20;99.90
16846;DHT22;8539;53.188;8.696;2023-07-22T00:56:11;13.20;99.90
16846;DHT22;8539;53.188;8.696;2023-07-22T00:58:37;13.20;99.90
16846;DHT22;8539;53.188;8.696;2023-07-22T01:01:03;13.20;99.90
16846;DHT22;8539;53.188;8.696;2023-07-22T01:03:29;13.20;99.90
16846;DHT22;8539;53.188;8.696;2023-07-22T01:05:55;13.10;99.90
16846;DHT22;8539;53.188;8.696;2023-07-22T01:08:23;13.10;99.90
16846;DHT22;8539;53.188;8.696;2023-07-22T01:10:49;13.10;99.90
16846;DHT22;8539;53.188;8.696;2023-07-22T01:13:15;13.00;99.90
16846;DHT22;8539;53.188;8.696;2023-07-22T01:15:41;13.00;99.90
16846;DHT22;8539;53.188;8.696;2023-07-22T01:18:07;13.00;99.90
16846;DHT22;8539;53.188;8.696;2023-07-22T01:20:34;13.00;99.90
16846;DHT22;8539;53.188;8.696;2023-07-22T01:23:01;13.00;99.90
16846;DHT22;8539;53.188;8.696;2023-07-22T01:25:28;12.90;99.90
16846;DHT22;8539;53.188;8.696;2023-07-22T01:27:54;12.90;99.90
16846;DHT22;8539;53.188;8.696;2023-07-22T01:30:20;12.90;99.90
16846;DHT22;8539;53.188;8.696;2023-07-22T01:32:49;12.90;99.90
16846;DHT22;8539;53.188;8.696;2023-07-22T01:35:16;12.90;99.90
16846;DHT22;8539;53.188;8.696;2023-07-22T01:37:42;12.90;99.90
16846;DHT22;8539;53.188;8.696;2023-07-22T01:40:10;12.90;99.90
16846;DHT22;8539;53.188;8.696;2023-07-22T01:42:40;12.90;99.90
16846;DHT22;8539;53.188;8.696;2023-07-22T01:45:06;12.80;99.90
16846;DHT22;8539;53.188;8.696;2023-07-22T01:47:37;12.80;99.90
16846;DHT22;8539;53.188;8.696;2023-07-22T01:50:04;12.80;99.90
16846;DHT22;8539;53.188;8.696;2023-07-22T01:52:32;12.80;99.90
16846;DHT22;8539;53.188;8.696;2023-07-22T01:54:58;12.80;99.90
16846;DHT22;8539;53.188;8.696;2023-07-22T01:57:24;12.80;99.90
16846;DHT22;8539;53.188;8.696;2023-07-22T01:59:50;12.80;99.90
16846;DHT22;8539;53.188;8.696;2023-07-22T02:02:16;12.80;99.90
16846;DHT22;8539;53.188;8.696;2023-07-22T02:04:42;12.80;99.90
16846;DHT22;8539;53.188;8.696;2023-07-22T02:07:08;12.70;99.90
16846;DHT22;8539;53.188;8.696;2023-07-22T02:09:34;12.70;99.90
16846;DHT22;8539;53.188;8.696;2023-07-22T02:12:01;12.70;99.90
16846;DHT22;8539;53.188;8.696;2023-07-22T02:14:27;12.70;99.90
16846;DHT22;8539;53.188;8.696;2023-07-22T02:16:53;12.60;99.90
16846;DHT22;8539;53.188;8.696;2023-07-22T02:19:19;12.60;99.90
16846;DHT22;8539;53.188;8.696;2023-07-22T02:21:45;12.60;99.90
16846;DHT22;8539;53.188;8.696;2023-07-22T02:24:12;12.60;99.90
16846;DHT22;8539;53.188;8.696;2023-07-22T02:26:38;12.60;99.90
16846;DHT22;8539;53.188;8.696;2023-07-22T02:29:04;12.60;99.90
16846;DHT22;8539;53.188;8.696;2023-07-22T02:31:30;12.60;99.90
16846;DHT22;8539;53.188;8.696;2023-07-22T02:33:56;12.50;99.90
16846;DHT22;8539;53.188;8.696;2023-07-22T02:36:25;12.50;99.90
16846;DHT22;8539;53.188;8.696;2023-07-22T02:38:51;12.50;99.90
16846;DHT22;8539;53.188;8.696;2023-07-22T02:41:17;12.50;99.90
16846;DHT22;8539;53.188;8.696;2023-07-22T02:43:44;12.50;99.90
16846;DHT22;8539;53.188;8.696;2023-07-22T02:46:11;12.40;99.90
16846;DHT22;8539;53.188;8.696;2023-07-22T02:48:37;12.40;99.90
16846;DHT22;8539;53.188;8.696;2023-07-22T02:51:06;12.40;99.90
16846;DHT22;8539;53.188;8.696;2023-07-22T02:53:33;12.40;99.90
16846;DHT22;8539;53.188;8.696;2023-07-22T02:55:59;12.40;99.90
16846;DHT22;8539;53.188;8.696;2023-07-22T02:58:26;12.40;99.90
16846;DHT22;8539;53.188;8.696;2023-07-22T03:00:52;12.30;99.90
16846;DHT22;8539;53.188;8.696;2023-07-22T03:03:18;12.30;99.90
16846;DHT22;8539;53.188;8.696;2023-07-22T03:05:45;12.30;99.90
16846;DHT22;8539;53.188;8.696;2023-07-22T03:08:11;12.30;99.90
16846;DHT22;8539;53.188;8.696;2023-07-22T03:10:37;12.30;99.90
16846;DHT22;8539;53.188;8.696;2023-07-22T03:13:03;12.30;99.90
16846;DHT22;8539;53.188;8.696;2023-07-22T03:15:29;12.20;99.90
16846;DHT22;8539;53.188;8.696;2023-07-22T03:17:56;12.20;99.90
16846;DHT22;8539;53.188;8.696;2023-07-22T03:20:25;12.20;99.90
16846;DHT22;8539;53.188;8.696;2023-07-22T03:22:51;12.10;99.90
16846;DHT22;8539;53.188;8.696;2023-07-22T03:25:19;12.20;99.90
16846;DHT22;8539;53.188;8.696;2023-07-22T03:27:46;12.10;99.90
16846;DHT22;8539;53.188;8.696;2023-07-22T03:30:14;12.10;99.90
16846;DHT22;8539;53.188;8.696;2023-07-22T03:32:47;12.10;99.90
16846;DHT22;8539;53.188;8.696;2023-07-22T03:35:14;12.00;99.90
16846;DHT22;8539;53.188;8.696;2023-07-22T03:37:40;12.00;99.90
16846;DHT22;8539;53.188;8.696;2023-07-22T03:40:07;12.00;99.90
16846;DHT22;8539;53.188;8.696;2023-07-22T03:42:38;12.00;99.90
16846;DHT22;8539;53.188;8.696;2023-07-22T03:45:05;12.00;99.90
16846;DHT22;8539;53.188;8.696;2023-07-22T03:47:31;11.90;99.90
16846;DHT22;8539;53.188;8.696;2023-07-22T03:49:58;11.90;99.90
16846;DHT22;8539;53.188;8.696;2023-07-22T03:52:24;11.80;99.90
16846;DHT22;8539;53.188;8.696;2023-07-22T03:54:50;11.90;99.90
16846;DHT22;8539;53.188;8.696;2023-07-22T03:57:16;11.80;99.90
16846;DHT22;8539;53.188;8.696;2023-07-22T03:59:42;11.80;99.90
16846;DHT22;8539;53.188;8.696;2023-07-22T04:02:08;11.80;99.90
16846;DHT22;8539;53.188;8.696;2023-07-22T04:04:34;11.80;99.90
16846;DHT22;8539;53.188;8.696;2023-07-22T04:07:00;11.80;99.90
16846;DHT22;8539;53.188;8.696;2023-07-22T04:09:29;11.80;99.90
16846;DHT22;8539;53.188;8.696;2023-07-22T04:11:55;11.80;99.90
16846;DHT22;8539;53.188;8.696;2023-07-22T04:14:21;11.80;99.90
16846;DHT22;8539;53.188;8.696;2023-07-22T04:16:48;11.80;99.90
16846;DHT22;8539;53.188;8.696;2023-07-22T04:19:15;11.80;99.90
16846;DHT22;8539;53.188;8.696;2023-07-22T04:21:42;11.80;99.90
16846;DHT22;8539;53.188;8.696;2023-07-22T04:24:08;11.80;99.90
16846;DHT22;8539;53.188;8.696;2023-07-22T04:26:36;11.80;99.90
16846;DHT22;8539;53.188;8.696;2023-07-22T04:29:02;11.90;99.90
16846;DHT22;8539;53.188;8.696;2023-07-22T04:31:28;11.80;99.90
16846;DHT22;8539;53.188;8.696;2023-07-22T04:33:54;11.90;99.90
16846;DHT22;8539;53.188;8.696;2023-07-22T04:36:20;11.90;99.90
16846;DHT22;8539;53.188;8.696;2023-07-22T04:38:46;11.90;99.90
16846;DHT22;8539;53.188;8.696;2023-07-22T04:41:13;12.00;99.90
16846;DHT22;8539;53.188;8.696;2023-07-22T04:43:39;12.00;99.90
16846;DHT22;8539;53.188;8.696;2023-07-22T04:46:06;12.00;99.90
16846;DHT22;8539;53.188;8.696;2023-07-22T04:48:32;12.00;99.90
16846;DHT22;8539;53.188;8.696;2023-07-22T04:50:58;12.10;99.90
16846;DHT22;8539;53.188;8.696;2023-07-22T04:53:24;12.10;99.90
16846;DHT22;8539;53.188;8.696;2023-07-22T04:55:50;12.20;99.90
16846;DHT22;8539;53.188;8.696;2023-07-22T04:58:16;12.20;99.90
16846;DHT22;8539;53.188;8.696;2023-07-22T05:00:43;12.20;99.90
16846;DHT22;8539;53.188;8.696;2023-07-22T05:03:09;12.20;99.90
16846;DHT22;8539;53.188;8.696;2023-07-22T05:05:35;12.30;99.90
16846;DHT22;8539;53.188;8.696;2023-07-22T05:08:02;12.30;99.90
16846;DHT22;8539;53.188;8.696;2023-07-22T05:10:28;12.30;99.90
16846;DHT22;8539;53.188;8.696;2023-07-22T05:12:55;12.40;99.90
16846;DHT22;8539;53.188;8.696;2023-07-22T05:15:23;12.40;99.90
16846;DHT22;8539;53.188;8.696;2023-07-22T05:17:49;12.50;99.90
16846;DHT22;8539;53.188;8.696;2023-07-22T05:20:15;12.50;99.90
16846;DHT22;8539;53.188;8.696;2023-07-22T05:22:41;12.60;99.90
16846;DHT22;8539;53.188;8.696;2023-07-22T05:25:08;12.70;99.90
16846;DHT22;8539;53.188;8.696;2023-07-22T05:27:35;12.70;99.90
16846;DHT22;8539;53.188;8.696;2023-07-22T05:30:01;12.80;99.90
16846;DHT22;8539;53.188;8.696;2023-07-22T05:32:31;12.80;99.90
16846;DHT22;8539;53.188;8.696;2023-07-22T05:34:57;12.90;99.90
16846;DHT22;8539;53.188;8.696;2023-07-22T05:37:24;13.00;99.90
16846;DHT22;8539;53.188;8.696;2023-07-22T05:39:50;13.10;99.90
16846;DHT22;8539;53.188;8.696;2023-07-22T05:42:17;13.20;99.90
16846;DHT22;8539;53.188;8.696;2023-07-22T05:44:44;13.40;99.90
16846;DHT22;8539;53.188;8.696;2023-07-22T05:47:10;13.70;99.90
16846;DHT22;8539;53.188;8.696;2023-07-22T05:49:36;14.00;99.90
16846;DHT22;8539;53.188;8.696;2023-07-22T05:52:02;14.20;99.90
16846;DHT22;8539;53.188;8.696;2023-07-22T05:54:28;14.40;99.90
16846;DHT22;8539;53.188;8.696;2023-07-22T05:56:54;14.60;99.90
16846;DHT22;8539;53.188;8.696;2023-07-22T05:59:20;14.60;99.90
16846;DHT22;8539;53.188;8.696;2023-07-22T06:01:47;14.60;99.90
16846;DHT22;8539;53.188;8.696;2023-07-22T06:04:13;14.60;99.90
16846;DHT22;8539;53.188;8.696;2023-07-22T06:06:39;14.70;99.90
16846;DHT22;8539;53.188;8.696;2023-07-22T06:09:05;14.80;99.90
16846;DHT22;8539;53.188;8.696;2023-07-22T06:11:31;14.80;99.90
16846;DHT22;8539;53.188;8.696;2023-07-22T06:13:58;14.70;99.90
16846;DHT22;8539;53.188;8.696;2023-07-22T06:16:24;14.70;99.90
16846;DHT22;8539;53.188;8.696;2023-07-22T06:18:50;14.70;99.90
16846;DHT22;8539;53.188;8.696;2023-07-22T06:21:16;14.60;99.90
16846;DHT22;8539;53.188;8.696;2023-07-22T06:23:42;14.60;99.90
16846;DHT22;8539;53.188;8.696;2023-07-22T06:26:09;14.60;99.90
16846;DHT22;8539;53.188;8.696;2023-07-22T06:28:35;14.70;99.90
16846;DHT22;8539;53.188;8.696;2023-07-22T06:31:01;14.90;99.90
16846;DHT22;8539;53.188;8.696;2023-07-22T06:33:27;15.10;99.90
16846;DHT22;8539;53.188;8.696;2023-07-22T06:35:53;15.40;99.90
16846;DHT22;8539;53.188;8.696;2023-07-22T06:38:19;15.40;99.90
16846;DHT22;8539;53.188;8.696;2023-07-22T06:40:45;15.40;99.90
16846;DHT22;8539;53.188;8.696;2023-07-22T06:43:11;15.40;99.90
16846;DHT22;8539;53.188;8.696;2023-07-22T06:45:37;15.50;99.90
16846;DHT22;8539;53.188;8.696;2023-07-22T06:48:03;15.60;99.90
16846;DHT22;8539;53.188;8.696;2023-07-22T06:50:30;15.80;99.90
16846;DHT22;8539;53.188;8.696;2023-07-22T06:52:56;15.90;99.90
16846;DHT22;8539;53.188;8.696;2023-07-22T06:55:22;16.10;99.90
16846;DHT22;8539;53.188;8.696;2023-07-22T06:57:48;16.20;99.90
16846;DHT22;8539;53.188;8.696;2023-07-22T07:00:15;16.20;99.90
16846;DHT22;8539;53.188;8.696;2023-07-22T07:02:41;16.20;99.90
16846;DHT22;8539;53.188;8.696;2023-07-22T07:05:07;16.20;99.90
16846;DHT22;8539;53.188;8.696;2023-07-22T07:07:33;16.20;99.90
16846;DHT22;8539;53.188;8.696;2023-07-22T07:09:59;16.10;99.90
16846;DHT22;8539;53.188;8.696;2023-07-22T07:12:25;16.00;99.90
16846;DHT22;8539;53.188;8.696;2023-07-22T07:14:52;16.00;99.90
16846;DHT22;8539;53.188;8.696;2023-07-22T07:17:19;16.00;99.90
16846;DHT22;8539;53.188;8.696;2023-07-22T07:22:20;15.90;99.90
16846;DHT22;8539;53.188;8.696;2023-07-22T07:24:46;16.00;99.90
16846;DHT22;8539;53.188;8.696;2023-07-22T07:27:12;16.00;99.90
16846;DHT22;8539;53.188;8.696;2023-07-22T07:29:38;16.00;99.90
16846;DHT22;8539;53.188;8.696;2023-07-22T07:32:05;16.10;99.90
16846;DHT22;8539;53.188;8.696;2023-07-22T07:34:31;16.10;99.90
16846;DHT22;8539;53.188;8.696;2023-07-22T07:36:57;16.20;99.90
16846;DHT22;8539;53.188;8.696;2023-07-22T07:39:23;16.20;99.90
16846;DHT22;8539;53.188;8.696;2023-07-22T07:41:50;16.20;99.90
16846;DHT22;8539;53.188;8.696;2023-07-22T07:44:16;16.30;99.90
16846;DHT22;8539;53.188;8.696;2023-07-22T07:46:45;16.40;99.90
16846;DHT22;8539;53.188;8.696;2023-07-22T07:49:11;16.60;99.90
16846;DHT22;8539;53.188;8.696;2023-07-22T07:51:37;16.70;99.90
16846;DHT22;8539;53.188;8.696;2023-07-22T07:54:03;16.80;99.90
16846;DHT22;8539;53.188;8.696;2023-07-22T07:56:32;16.90;99.90
16846;DHT22;8539;53.188;8.696;2023-07-22T07:58:58;16.80;99.90
16846;DHT22;8539;53.188;8.696;2023-07-22T08:01:25;16.80;99.90
16846;DHT22;8539;53.188;8.696;2023-07-22T08:03:56;16.70;99.90
16846;DHT22;8539;53.188;8.696;2023-07-22T08:06:22;16.60;99.90
16846;DHT22;8539;53.188;8.696;2023-07-22T08:08:51;16.60;99.90
16846;DHT22;8539;53.188;8.696;2023-07-22T08:11:17;16.70;99.90
16846;DHT22;8539;53.188;8.696;2023-07-22T08:13:44;16.70;99.90
16846;DHT22;8539;53.188;8.696;2023-07-22T08:16:12;16.70;99.90
16846;DHT22;8539;53.188;8.696;2023-07-22T08:18:38;16.80;99.90
16846;DHT22;8539;53.188;8.696;2023-07-22T08:21:06;16.90;99.90
16846;DHT22;8539;53.188;8.696;2023-07-22T08:23:33;17.00;99.90
16846;DHT22;8539;53.188;8.696;2023-07-22T08:26:02;17.10;99.90
16846;DHT22;8539;53.188;8.696;2023-07-22T08:28:33;17.10;99.90
16846;DHT22;8539;53.188;8.696;2023-07-22T08:31:01;17.10;99.90
16846;DHT22;8539;53.188;8.696;2023-07-22T08:33:27;17.20;99.90
16846;DHT22;8539;53.188;8.696;2023-07-22T08:35:53;17.20;99.90
16846;DHT22;8539;53.188;8.696;2023-07-22T08:38:19;17.30;99.90
16846;DHT22;8539;53.188;8.696;2023-07-22T08:40:49;17.30;99.90
16846;DHT22;8539;53.188;8.696;2023-07-22T08:43:21;17.40;99.90
16846;DHT22;8539;53.188;8.696;2023-07-22T08:45:49;17.60;99.90
16846;DHT22;8539;53.188;8.696;2023-07-22T08:48:18;17.60;99.90
16846;DHT22;8539;53.188;8.696;2023-07-22T08:50:59;17.60;99.90
16846;DHT22;8539;53.188;8.696;2023-07-22T08:53:29;17.60;99.90
16846;DHT22;8539;53.188;8.696;2023-07-22T08:58:55;17.50;99.90
16846;DHT22;8539;53.188;8.696;2023-07-22T09:01:21;17.40;99.90
16846;DHT22;8539;53.188;8.696;2023-07-22T09:03:49;17.50;99.90
16846;DHT22;8539;53.188;8.696;2023-07-22T09:06:21;17.50;99.90
16846;DHT22;8539;53.188;8.696;2023-07-22T09:08:48;17.50;99.90
16846;DHT22;8539;53.188;8.696;2023-07-22T09:11:21;17.50;99.90
16846;DHT22;8539;53.188;8.696;2023-07-22T09:13:47;17.50;99.90
16846;DHT22;8539;53.188;8.696;2023-07-22T09:16:15;17.50;99.90
16846;DHT22;8539;53.188;8.696;2023-07-22T09:18:42;17.50;99.90
16846;DHT22;8539;53.188;8.696;2023-07-22T09:21:08;17.50;99.90
16846;DHT22;8539;53.188;8.696;2023-07-22T09:23:37;17.50;99.90
16846;DHT22;8539;53.188;8.696;2023-07-22T09:26:19;17.50;99.90
16846;DHT22;8539;53.188;8.696;2023-07-22T09:28:57;17.60;99.90
16846;DHT22;8539;53.188;8.696;2023-07-22T09:31:25;17.70;99.90
16846;DHT22;8539;53.188;8.696;2023-07-22T09:33:56;17.80;99.90
16846;DHT22;8539;53.188;8.696;2023-07-22T09:36:50;17.90;99.90
16846;DHT22;8539;53.188;8.696;2023-07-22T09:39:16;18.00;99.90
16846;DHT22;8539;53.188;8.696;2023-07-22T09:41:42;18.00;99.90
16846;DHT22;8539;53.188;8.696;2023-07-22T09:44:11;18.10;99.90
16846;DHT22;8539;53.188;8.696;2023-07-22T09:46:38;18.20;99.90
16846;DHT22;8539;53.188;8.696;2023-07-22T09:49:06;18.40;99.90
16846;DHT22;8539;53.188;8.696;2023-07-22T09:51:37;18.60;99.90
16846;DHT22;8539;53.188;8.696;2023-07-22T09:54:04;18.80;99.90
16846;DHT22;8539;53.188;8.696;2023-07-22T09:56:43;18.90;99.90
16846;DHT22;8539;53.188;8.696;2023-07-22T09:59:10;19.00;99.90
16846;DHT22;8539;53.188;8.696;2023-07-22T10:01:40;19.10;99.90
16846;DHT22;8539;53.188;8.696;2023-07-22T10:04:10;19.10;99.90
16846;DHT22;8539;53.188;8.696;2023-07-22T10:06:38;19.10;99.90
16846;DHT22;8539;53.188;8.696;2023-07-22T10:09:07;19.10;99.90
16846;DHT22;8539;53.188;8.696;2023-07-22T10:11:34;19.10;99.90
16846;DHT22;8539;53.188;8.696;2023-07-22T10:14:04;19.00;99.90
16846;DHT22;8539;53.188;8.696;2023-07-22T10:16:31;19.00;99.90
16846;DHT22;8539;53.188;8.696;2023-07-22T10:18:58;19.10;99.90
16846;DHT22;8539;53.188;8.696;2023-07-22T10:21:25;19.20;99.90
16846;DHT22;8539;53.188;8.696;2023-07-22T10:23:54;19.20;99.90
16846;DHT22;8539;53.188;8.696;2023-07-22T10:26:21;19.20;99.90
16846;DHT22;8539;53.188;8.696;2023-07-22T10:28:47;19.10;99.90
16846;DHT22;8539;53.188;8.696;2023-07-22T10:31:14;19.10;99.90
16846;DHT22;8539;53.188;8.696;2023-07-22T10:33:50;19.10;99.90
16846;DHT22;8539;53.188;8.696;2023-07-22T10:36:17;19.00;99.90
16846;DHT22;8539;53.188;8.696;2023-07-22T10:38:56;18.90;99.90
16846;DHT22;8539;53.188;8.696;2023-07-22T10:41:23;18.80;99.90
16846;DHT22;8539;53.188;8.696;2023-07-22T10:43:54;18.80;99.90
16846;DHT22;8539;53.188;8.696;2023-07-22T10:46:35;18.80;99.90
16846;DHT22;8539;53.188;8.696;2023-07-22T10:49:13;18.80;99.90
16846;DHT22;8539;53.188;8.696;2023-07-22T10:51:40;18.80;99.90
16846;DHT22;8539;53.188;8.696;2023-07-22T10:54:14;18.90;99.90
16846;DHT22;8539;53.188;8.696;2023-07-22T10:56:44;18.90;99.90
16846;DHT22;8539;53.188;8.696;2023-07-22T10:59:11;18.90;99.90
16846;DHT22;8539;53.188;8.696;2023-07-22T11:01:39;18.90;99.90
16846;DHT22;8539;53.188;8.696;2023-07-22T11:17:01;18.80;99.90
16846;DHT22;8539;53.188;8.696;2023-07-22T11:19:30;18.80;99.90
16846;DHT22;8539;53.188;8.696;2023-07-22T11:21:56;18.80;99.90
16846;DHT22;8539;53.188;8.696;2023-07-22T11:24:24;18.80;99.90
16846;DHT22;8539;53.188;8.696;2023-07-22T11:26:51;18.80;99.90
16846;DHT22;8539;53.188;8.696;2023-07-22T11:32:23;18.80;99.90
16846;DHT22;8539;53.188;8.696;2023-07-22T11:34:53;18.80;99.90
16846;DHT22;8539;53.188;8.696;2023-07-22T11:37:19;18.70;99.90
16846;DHT22;8539;53.188;8.696;2023-07-22T11:39:45;18.70;99.90
16846;DHT22;8539;53.188;8.696;2023-07-22T11:42:11;18.60;99.90
16846;DHT22;8539;53.188;8.696;2023-07-22T11:44:38;18.60;99.90
16846;DHT22;8539;53.188;8.696;2023-07-22T11:47:06;18.70;99.90
16846;DHT22;8539;53.188;8.696;2023-07-22T11:49:38;18.70;99.90
16846;DHT22;8539;53.188;8.696;2023-07-22T11:52:09;18.70;99.90
16846;DHT22;8539;53.188;8.696;2023-07-22T11:54:37;18.60;99.90
16846;DHT22;8539;53.188;8.696;2023-07-22T11:57:18;18.60;99.90
16846;DHT22;8539;53.188;8.696;2023-07-22T11:59:49;18.60;99.90
16846;DHT22;8539;53.188;8.696;2023-07-22T12:02:17;18.50;99.90
16846;DHT22;8539;53.188;8.696;2023-07-22T12:04:50;18.50;99.90
16846;DHT22;8539;53.188;8.696;2023-07-22T12:07:24;18.50;99.90
16846;DHT22;8539;53.188;8.696;2023-07-22T12:09:52;18.50;99.90
16846;DHT22;8539;53.188;8.696;2023-07-22T12:12:18;18.50;99.90
16846;DHT22;8539;53.188;8.696;2023-07-22T12:14:44;18.40;99.90
16846;DHT22;8539;53.188;8.696;2023-07-22T12:17:10;18.40;99.90
16846;DHT22;8539;53.188;8.696;2023-07-22T12:19:36;18.30;99.90
16846;DHT22;8539;53.188;8.696;2023-07-22T12:22:03;18.30;99.90
16846;DHT22;8539;53.188;8.696;2023-07-22T12:24:30;18.20;99.90
16846;DHT22;8539;53.188;8.696;2023-07-22T12:26:56;18.10;99.90
16846;DHT22;8539;53.188;8.696;2023-07-22T12:29:22;18.00;99.90
16846;DHT22;8539;53.188;8.696;2023-07-22T12:31:48;17.90;99.90
16846;DHT22;8539;53.188;8.696;2023-07-22T12:34:14;17.70;99.90
16846;DHT22;8539;53.188;8.696;2023-07-22T12:36:40;17.50;99.90
16846;DHT22;8539;53.188;8.696;2023-07-22T12:39:07;17.40;99.90
16846;DHT22;8539;53.188;8.696;2023-07-22T12:41:33;17.30;99.90
16846;DHT22;8539;53.188;8.696;2023-07-22T12:43:59;17.10;99.90
16846;DHT22;8539;53.188;8.696;2023-07-22T12:46:25;17.00;99.90
16846;DHT22;8539;53.188;8.696;2023-07-22T12:48:52;16.80;99.90
16846;DHT22;8539;53.188;8.696;2023-07-22T12:51:18;16.70;99.90
16846;DHT22;8539;53.188;8.696;2023-07-22T12:53:44;16.60;99.90
16846;DHT22;8539;53.188;8.696;2023-07-22T12:56:10;16.50;99.90
16846;DHT22;8539;53.188;8.696;2023-07-22T12:58:36;16.50;99.90
16846;DHT22;8539;53.188;8.696;2023-07-22T13:01:02;16.40;99.90
16846;DHT22;8539;53.188;8.696;2023-07-22T13:03:28;16.30;99.90
16846;DHT22;8539;53.188;8.696;2023-07-22T13:05:54;16.30;99.90
16846;DHT22;8539;53.188;8.696;2023-07-22T13:08:20;16.30;99.90
16846;DHT22;8539;53.188;8.696;2023-07-22T13:10:46;16.20;99.90
16846;DHT22;8539;53.188;8.696;2023-07-22T13:13:13;16.20;99.90
16846;DHT22;8539;53.188;8.696;2023-07-22T13:15:39;16.20;99.90
16846;DHT22;8539;53.188;8.696;2023-07-22T13:18:05;16.10;99.90
16846;DHT22;8539;53.188;8.696;2023-07-22T13:20:31;16.10;99.90
16846;DHT22;8539;53.188;8.696;2023-07-22T13:22:58;16.00;99.90
16846;DHT22;8539;53.188;8.696;2023-07-22T13:25:24;16.00;99.90
16846;DHT22;8539;53.188;8.696;2023-07-22T13:27:50;16.00;99.90
16846;DHT22;8539;53.188;8.696;2023-07-22T13:30:17;16.00;99.90
16846;DHT22;8539;53.188;8.696;2023-07-22T13:32:44;16.00;99.90
16846;DHT22;8539;53.188;8.696;2023-07-22T13:35:11;16.00;99.90
16846;DHT22;8539;53.188;8.696;2023-07-22T13:42:47;16.20;99.90
16846;DHT22;8539;53.188;8.696;2023-07-22T13:45:14;16.20;99.90
16846;DHT22;8539;53.188;8.696;2023-07-22T13:47:41;16.30;99.90
16846;DHT22;8539;53.188;8.696;2023-07-22T13:50:07;16.40;99.90
16846;DHT22;8539;53.188;8.696;2023-07-22T13:52:33;16.30;99.90
16846;DHT22;8539;53.188;8.696;2023-07-22T13:54:59;16.30;99.90
16846;DHT22;8539;53.188;8.696;2023-07-22T13:57:25;16.30;99.90
16846;DHT22;8539;53.188;8.696;2023-07-22T14:02:30;16.20;99.90
16846;DHT22;8539;53.188;8.696;2023-07-22T14:04:56;16.20;99.90
16846;DHT22;8539;53.188;8.696;2023-07-22T14:07:23;16.20;99.90
16846;DHT22;8539;53.188;8.696;2023-07-22T14:09:49;16.20;99.90
16846;DHT22;8539;53.188;8.696;2023-07-22T14:12:15;16.20;99.90
16846;DHT22;8539;53.188;8.696;2023-07-22T14:14:41;16.20;99.90
16846;DHT22;8539;53.188;8.696;2023-07-22T14:17:07;16.20;99.90
16846;DHT22;8539;53.188;8.696;2023-07-22T14:19:34;16.20;99.90
16846;DHT22;8539;53.188;8.696;2023-07-22T14:22:00;16.10;99.90
16846;DHT22;8539;53.188;8.696;2023-07-22T14:24:26;16.10;99.90
16846;DHT22;8539;53.188;8.696;2023-07-22T14:26:52;16.10;99.90
16846;DHT22;8539;53.188;8.696;2023-07-22T14:31:48;16.00;99.90
16846;DHT22;8539;53.188;8.696;2023-07-22T14:34:15;16.00;99.90
16846;DHT22;8539;53.188;8.696;2023-07-22T14:36:42;16.00;99.90
16846;DHT22;8539;53.188;8.696;2023-07-22T14:39:10;16.00;99.90
16846;DHT22;8539;53.188;8.696;2023-07-22T14:41:36;16.00;99.90
16846;DHT22;8539;53.188;8.696;2023-07-22T14:44:02;16.00;99.90
16846;DHT22;8539;53.188;8.696;2023-07-22T14:46:28;16.00;99.90
16846;DHT22;8539;53.188;8.696;2023-07-22T14:48:54;16.00;99.90
16846;DHT22;8539;53.188;8.696;2023-07-22T14:51:21;16.00;99.90
16846;DHT22;8539;53.188;8.696;2023-07-22T14:53:47;16.00;99.90
16846;DHT22;8539;53.188;8.696;2023-07-22T14:56:13;16.00;99.90
16846;DHT22;8539;53.188;8.696;2023-07-22T14:58:39;16.10;99.90
16846;DHT22;8539;53.188;8.696;2023-07-22T15:01:06;16.10;99.90
16846;DHT22;8539;53.188;8.696;2023-07-22T15:03:36;16.10;99.90
16846;DHT22;8539;53.188;8.696;2023-07-22T15:06:02;16.10;99.90
16846;DHT22;8539;53.188;8.696;2023-07-22T15:08:28;16.20;99.90
16846;DHT22;8539;53.188;8.696;2023-07-22T15:10:54;16.20;99.90
16846;DHT22;8539;53.188;8.696;2023-07-22T15:13:20;16.20;99.90
16846;DHT22;8539;53.188;8.696;2023-07-22T15:15:46;16.20;99.90
16846;DHT22;8539;53.188;8.696;2023-07-22T15:18:12;16.30;99.90
16846;DHT22;8539;53.188;8.696;2023-07-22T15:20:38;16.30;99.90
16846;DHT22;8539;53.188;8.696;2023-07-22T15:23:04;16.30;99.90
16846;DHT22;8539;53.188;8.696;2023-07-22T15:25:30;16.30;99.90
16846;DHT22;8539;53.188;8.696;2023-07-22T15:27:56;16.30;99.90
16846;DHT22;8539;53.188;8.696;2023-07-22T15:30:22;16.30;99.90
16846;DHT22;8539;53.188;8.696;2023-07-22T15:32:48;16.30;99.90
16846;DHT22;8539;53.188;8.696;2023-07-22T15:35:16;16.30;99.90
16846;DHT22;8539;53.188;8.696;2023-07-22T15:37:42;16.20;99.90
16846;DHT22;8539;53.188;8.696;2023-07-22T15:40:09;16.20;99.90
16846;DHT22;8539;53.188;8.696;2023-07-22T15:42:35;16.20;99.90
16846;DHT22;8539;53.188;8.696;2023-07-22T15:45:02;16.10;99.90
16846;DHT22;8539;53.188;8.696;2023-07-22T15:47:28;16.10;99.90
16846;DHT22;8539;53.188;8.696;2023-07-22T15:49:54;16.00;99.90
16846;DHT22;8539;53.188;8.696;2023-07-22T15:52:20;16.00;99.90
16846;DHT22;8539;53.188;8.696;2023-07-22T15:54:46;15.90;99.90
16846;DHT22;8539;53.188;8.696;2023-07-22T15:57:12;15.90;99.90
16846;DHT22;8539;53.188;8.696;2023-07-22T15:59:38;15.90;99.90
16846;DHT22;8539;53.188;8.696;2023-07-22T16:02:05;15.80;99.90
16846;DHT22;8539;53.188;8.696;2023-07-22T16:04:32;15.80;99.90
16846;DHT22;8539;53.188;8.696;2023-07-22T16:06:58;15.80;99.90
16846;DHT22;8539;53.188;8.696;2023-07-22T16:09:24;15.70;99.90
16846;DHT22;8539;53.188;8.696;2023-07-22T16:11:50;15.70;99.90
16846;DHT22;8539;53.188;8.696;2023-07-22T16:14:17;15.70;99.90